createdAt,value
2019-04-30T00:00:45.550Z,50.91
2019-04-30T00:03:36.343Z,51.00
2019-04-30T00:06:07.522Z,51.01
2019-04-30T00:08:39.052Z,51.10
2019-04-30T00:11:10.788Z,51.17
2019-04-30T00:13:41.280Z,51.24
2019-04-30T00:16:11.582Z,51.37
2019-04-30T00:18:55.184Z,51.41
2019-04-30T00:21:15.165Z,51.44
2019-04-30T00:23:45.934Z,51.51
2019-04-30T00:26:17.309Z,51.56
2019-04-30T00:28:47.838Z,51.57
2019-04-30T00:31:23.588Z,51.65
2019-04-30T00:33:52.734Z,51.66
2019-04-30T00:36:29.053Z,51.78
2019-04-30T00:38:56.451Z,51.92
2019-04-30T00:41:26.642Z,52.08
2019-04-30T00:43:56.819Z,53.19
2019-04-30T00:46:29.286Z,54.08
2019-04-30T00:49:09.047Z,53.40
2019-04-30T00:51:31.809Z,52.82
2019-04-30T00:54:01.998Z,53.76
2019-04-30T00:56:32.125Z,54.42
2019-04-30T00:59:06.242Z,53.71
2019-04-30T01:01:58.851Z,53.24
2019-04-30T01:04:39.695Z,53.20
2019-04-30T01:07:11.042Z,52.92
2019-04-30T01:09:46.429Z,52.92
2019-04-30T01:12:17.478Z,52.99
2019-04-30T01:14:44.793Z,53.81
2019-04-30T01:17:14.901Z,53.44
2019-04-30T01:19:46.015Z,52.96
2019-04-30T01:22:21.527Z,52.98
2019-04-30T01:24:49.679Z,52.86
2019-04-30T01:27:20.968Z,52.84
2019-04-30T01:29:51.286Z,52.96
2019-04-30T01:32:21.394Z,53.14
2019-04-30T01:34:53.751Z,53.06
2019-04-30T01:37:28.635Z,53.09
2019-04-30T01:39:55.203Z,53.09
2019-04-30T01:42:25.313Z,53.32
2019-04-30T01:44:55.457Z,53.49
2019-04-30T01:47:27.779Z,53.40
2019-04-30T01:50:01.000Z,53.37
2019-04-30T01:52:49.475Z,53.48
2019-04-30T01:55:21.187Z,53.53
2019-04-30T01:57:59.956Z,53.52
2019-04-30T02:00:32.950Z,53.47
2019-04-30T02:03:03.067Z,53.63
2019-04-30T02:05:33.246Z,53.78
2019-04-30T02:08:03.363Z,53.67
2019-04-30T02:10:33.507Z,53.69
2019-04-30T02:13:03.613Z,53.73
2019-04-30T02:15:33.738Z,53.75
2019-04-30T02:18:03.861Z,53.76
2019-04-30T02:20:33.966Z,53.83
2019-04-30T02:23:04.092Z,54.16
2019-04-30T02:25:34.229Z,54.02
2019-04-30T02:28:04.333Z,54.10
2019-04-30T02:30:35.514Z,54.13
2019-04-30T02:33:05.681Z,54.04
2019-04-30T02:36:04.059Z,53.95
2019-04-30T02:38:36.247Z,53.91
2019-04-30T02:41:09.876Z,53.93
2019-04-30T02:43:41.631Z,54.13
2019-04-30T02:46:14.667Z,54.29
2019-04-30T02:48:46.297Z,54.76
2019-04-30T02:51:20.117Z,54.48
2019-04-30T02:54:20.349Z,54.29
2019-04-30T02:57:11.294Z,54.15
2019-04-30T02:59:59.998Z,54.05
2019-04-30T03:02:31.783Z,54.25
2019-04-30T03:05:02.093Z,54.29
2019-04-30T03:07:32.205Z,55.78
2019-04-30T03:10:02.320Z,55.13
2019-04-30T03:12:33.843Z,57.13
2019-04-30T03:15:05.264Z,58.51
2019-04-30T03:17:45.672Z,57.83
2019-04-30T03:20:36.298Z,57.50
2019-04-30T03:23:05.638Z,58.43
2019-04-30T03:25:35.787Z,58.33
2019-04-30T03:28:05.895Z,58.78
2019-04-30T03:30:36.021Z,59.25
2019-04-30T03:33:06.145Z,59.15
2019-04-30T03:35:36.267Z,57.69
2019-04-30T03:38:06.385Z,58.06
2019-04-30T03:40:36.578Z,58.45
2019-04-30T03:43:06.799Z,58.55
2019-04-30T03:45:40.006Z,57.40
2019-04-30T03:48:10.184Z,56.67
2019-04-30T03:50:52.502Z,57.01
2019-04-30T03:53:12.424Z,57.09
2019-04-30T03:55:42.537Z,56.85
2019-04-30T03:58:12.696Z,56.96
2019-04-30T04:01:01.790Z,57.31
2019-04-30T04:03:34.314Z,56.73
2019-04-30T04:06:29.295Z,56.49
2019-04-30T04:09:10.330Z,57.48
2019-04-30T04:11:42.080Z,57.31
2019-04-30T04:14:12.186Z,56.99
2019-04-30T04:16:42.301Z,56.49
2019-04-30T04:19:12.451Z,55.69
2019-04-30T04:21:43.635Z,55.38
2019-04-30T04:24:13.756Z,55.51
2019-04-30T04:26:44.168Z,56.19
2019-04-30T04:29:14.399Z,58.02
2019-04-30T04:31:44.508Z,57.63
2019-04-30T04:34:14.630Z,56.93
2019-04-30T04:36:44.760Z,56.55
2019-04-30T04:39:14.890Z,58.19
2019-04-30T04:41:45.002Z,58.75
2019-04-30T04:44:15.160Z,58.28
2019-04-30T04:46:45.260Z,58.19
2019-04-30T04:49:15.592Z,58.43
2019-04-30T04:51:45.706Z,57.77
2019-04-30T04:54:15.828Z,57.54
2019-04-30T04:56:46.866Z,58.22
2019-04-30T04:59:17.010Z,59.04
2019-04-30T05:01:48.937Z,58.44
2019-04-30T05:04:19.919Z,57.75
2019-04-30T05:06:50.184Z,57.52
2019-04-30T05:09:20.287Z,57.31
2019-04-30T05:11:51.109Z,57.51
2019-04-30T05:14:21.232Z,57.49
2019-04-30T05:16:51.389Z,58.65
2019-04-30T05:19:21.522Z,58.48
2019-04-30T05:21:51.843Z,58.32
2019-04-30T05:24:22.497Z,57.91
2019-04-30T05:26:52.716Z,57.16
2019-04-30T05:29:22.863Z,56.58
2019-04-30T05:31:52.980Z,55.78
2019-04-30T05:34:23.088Z,55.25
2019-04-30T05:36:53.269Z,54.59
2019-04-30T05:39:23.390Z,54.07
2019-04-30T05:41:53.587Z,53.77
2019-04-30T05:44:24.066Z,53.78
2019-04-30T05:46:54.262Z,53.07
2019-04-30T05:49:24.399Z,52.36
2019-04-30T05:51:55.906Z,51.58
2019-04-30T05:54:26.228Z,50.99
2019-04-30T05:56:56.350Z,50.63
2019-04-30T05:59:26.500Z,50.42
2019-04-30T06:01:59.250Z,50.34
2019-04-30T06:04:29.516Z,50.30
2019-04-30T06:06:59.628Z,50.28
2019-04-30T06:10:04.488Z,49.71
2019-04-30T06:12:46.378Z,49.96
2019-04-30T06:15:29.473Z,49.59
2019-04-30T06:18:06.765Z,49.86
2019-04-30T06:20:31.524Z,49.12
2019-04-30T06:23:01.705Z,49.23
2019-04-30T06:25:41.232Z,49.17
2019-04-30T06:28:04.187Z,49.42
2019-04-30T06:30:35.221Z,49.46
2019-04-30T06:33:05.349Z,48.74
2019-04-30T06:35:35.785Z,47.36
2019-04-30T06:38:05.902Z,46.59
2019-04-30T06:40:36.033Z,47.43
2019-04-30T06:43:06.136Z,47.19
2019-04-30T06:45:38.653Z,47.07
2019-04-30T06:48:09.182Z,46.77
2019-04-30T06:50:39.456Z,46.21
2019-04-30T06:53:09.724Z,45.23
2019-04-30T06:55:39.838Z,44.78
2019-04-30T06:58:15.183Z,44.17
2019-04-30T07:00:41.902Z,43.92
2019-04-30T07:03:11.993Z,43.93
2019-04-30T07:05:42.104Z,43.24
2019-04-30T07:08:37.337Z,42.66
2019-04-30T07:11:19.599Z,42.37
2019-04-30T07:13:52.291Z,42.34
2019-04-30T07:16:22.976Z,41.76
2019-04-30T07:18:53.072Z,42.13
2019-04-30T07:21:23.199Z,41.94
2019-04-30T07:23:53.306Z,41.89
2019-04-30T07:26:24.736Z,42.19
2019-04-30T07:28:55.632Z,42.71
2019-04-30T07:31:25.794Z,42.64
2019-04-30T07:33:55.928Z,42.85
2019-04-30T07:36:43.504Z,42.80
2019-04-30T07:38:59.890Z,42.71
2019-04-30T07:41:31.191Z,42.38
2019-04-30T07:44:01.579Z,41.85
2019-04-30T07:46:35.271Z,41.91
2019-04-30T07:49:03.503Z,41.56
2019-04-30T07:51:38.136Z,41.56
2019-04-30T07:54:05.443Z,41.84
2019-04-30T07:56:40.875Z,41.46
2019-04-30T07:59:10.831Z,40.92
2019-04-30T08:02:00.752Z,41.56
2019-04-30T08:04:14.460Z,41.52
2019-04-30T08:06:44.729Z,41.69
2019-04-30T08:09:14.878Z,42.15
2019-04-30T08:11:45.010Z,42.31
2019-04-30T08:14:15.147Z,42.31
2019-04-30T08:16:45.265Z,42.78
2019-04-30T08:19:15.390Z,42.83
2019-04-30T08:21:45.503Z,42.82
2019-04-30T08:24:15.597Z,43.55
2019-04-30T08:26:45.773Z,44.02
2019-04-30T08:29:15.891Z,44.18
2019-04-30T08:31:46.213Z,44.20
2019-04-30T08:34:16.317Z,43.76
2019-04-30T08:36:46.442Z,44.02
2019-04-30T08:39:16.572Z,42.66
2019-04-30T08:41:46.694Z,42.59
2019-04-30T08:44:16.824Z,42.92
2019-04-30T08:46:49.080Z,42.58
2019-04-30T08:49:19.457Z,43.08
2019-04-30T08:51:50.439Z,43.09
2019-04-30T08:54:21.108Z,43.66
2019-04-30T08:56:51.432Z,42.71
2019-04-30T08:59:21.541Z,42.13
2019-04-30T09:01:51.698Z,41.91
2019-04-30T09:04:21.816Z,42.46
2019-04-30T09:06:52.039Z,42.66
2019-04-30T09:09:23.427Z,42.31
2019-04-30T09:11:55.761Z,41.31
2019-04-30T09:14:25.375Z,41.20
2019-04-30T09:16:55.493Z,41.85
2019-04-30T09:19:25.603Z,42.47
2019-04-30T09:21:55.733Z,42.61
2019-04-30T09:24:25.866Z,42.38
2019-04-30T09:26:56.029Z,41.69
2019-04-30T09:29:26.152Z,41.77
2019-04-30T09:31:56.274Z,41.92
2019-04-30T09:34:26.392Z,42.12
2019-04-30T09:36:56.534Z,42.16
2019-04-30T09:39:26.693Z,42.21
2019-04-30T09:41:56.845Z,41.36
2019-04-30T09:44:30.547Z,41.52
2019-04-30T09:46:58.945Z,41.70
2019-04-30T09:49:29.513Z,41.50
2019-04-30T09:52:00.413Z,40.84
2019-04-30T09:54:31.401Z,40.87
2019-04-30T09:57:01.767Z,40.60
2019-04-30T09:59:31.876Z,40.16
2019-04-30T10:02:02.010Z,39.05
2019-04-30T10:04:32.474Z,38.30
2019-04-30T10:07:02.727Z,38.18
2019-04-30T10:09:32.834Z,38.48
2019-04-30T10:12:15.815Z,37.74
2019-04-30T10:14:45.989Z,37.42
2019-04-30T10:17:47.534Z,37.30
2019-04-30T10:20:19.325Z,37.00
2019-04-30T10:22:49.571Z,36.09
2019-04-30T10:25:19.661Z,35.33
2019-04-30T10:27:50.278Z,35.42
2019-04-30T10:30:23.290Z,35.64
2019-04-30T10:32:53.429Z,35.07
2019-04-30T10:35:23.545Z,34.20
2019-04-30T10:37:53.696Z,34.77
2019-04-30T10:40:23.817Z,35.08
2019-04-30T10:42:53.970Z,35.08
2019-04-30T10:45:24.087Z,35.00
2019-04-30T10:47:54.208Z,34.32
2019-04-30T10:50:26.430Z,34.19
2019-04-30T10:52:56.574Z,33.88
2019-04-30T10:55:28.690Z,33.79
2019-04-30T10:57:59.371Z,34.59
2019-04-30T11:00:40.428Z,34.13
2019-04-30T11:03:19.691Z,33.37
2019-04-30T11:05:43.586Z,34.11
2019-04-30T11:08:13.785Z,34.03
2019-04-30T11:10:43.906Z,34.03
2019-04-30T11:13:14.044Z,33.79
2019-04-30T11:15:44.547Z,33.68
2019-04-30T11:18:14.970Z,33.23
2019-04-30T11:20:45.509Z,33.38
2019-04-30T11:23:15.763Z,33.27
2019-04-30T11:25:46.517Z,32.32
2019-04-30T11:28:17.732Z,33.13
2019-04-30T11:30:50.011Z,33.44
2019-04-30T11:33:20.393Z,33.68
2019-04-30T11:36:02.073Z,33.50
2019-04-30T11:38:22.515Z,33.52
2019-04-30T11:40:52.656Z,33.32
2019-04-30T11:43:22.804Z,33.02
2019-04-30T11:46:45.773Z,33.30
2019-04-30T11:49:15.919Z,33.17
2019-04-30T11:51:46.036Z,33.46
2019-04-30T11:54:18.727Z,32.75
2019-04-30T11:56:50.448Z,33.59
2019-04-30T11:59:20.809Z,33.30
2019-04-30T12:01:52.579Z,32.65
2019-04-30T12:04:22.709Z,33.36
2019-04-30T12:06:54.606Z,33.40
2019-04-30T12:09:55.627Z,32.73
2019-04-30T12:12:26.274Z,33.06
2019-04-30T12:14:56.385Z,31.69
2019-04-30T12:17:26.511Z,32.60
2019-04-30T12:19:58.592Z,32.80
2019-04-30T12:22:29.561Z,32.51
2019-04-30T12:25:03.322Z,32.76
2019-04-30T12:27:31.745Z,32.63
2019-04-30T12:30:01.997Z,32.43
2019-04-30T12:32:32.096Z,32.37
2019-04-30T12:35:02.275Z,32.32
2019-04-30T12:37:32.537Z,31.89
2019-04-30T12:40:02.690Z,31.51
2019-04-30T12:42:32.818Z,31.82
2019-04-30T12:45:02.933Z,32.08
2019-04-30T12:47:35.347Z,32.44
2019-04-30T12:50:25.333Z,32.40
2019-04-30T12:52:59.518Z,32.21
2019-04-30T12:55:49.032Z,32.81
2019-04-30T12:58:20.781Z,32.41
2019-04-30T13:00:51.315Z,31.31
2019-04-30T13:03:24.276Z,30.90
2019-04-30T13:05:54.830Z,31.53
2019-04-30T13:08:25.991Z,31.96
2019-04-30T13:10:57.106Z,32.19
2019-04-30T13:13:31.481Z,31.93
2019-04-30T13:16:00.023Z,31.95
2019-04-30T13:18:30.281Z,31.55
2019-04-30T13:21:00.614Z,32.15
2019-04-30T13:23:30.864Z,32.14
2019-04-30T13:26:01.170Z,31.96
2019-04-30T13:28:40.326Z,32.07
2019-04-30T13:31:10.670Z,32.44
2019-04-30T13:33:46.448Z,32.91
2019-04-30T13:36:17.072Z,32.80
2019-04-30T13:39:15.166Z,32.65
2019-04-30T13:41:51.031Z,32.92
2019-04-30T13:44:29.428Z,32.69
2019-04-30T13:46:59.678Z,33.14
2019-04-30T13:49:30.222Z,33.04
2019-04-30T13:52:00.500Z,33.08
2019-04-30T13:54:30.606Z,33.85
2019-04-30T13:57:00.855Z,33.82
2019-04-30T13:59:30.988Z,33.71
2019-04-30T14:02:01.134Z,33.92
2019-04-30T14:04:53.093Z,33.96
2019-04-30T14:07:42.248Z,34.31
2019-04-30T14:10:12.864Z,34.63
2019-04-30T14:12:48.869Z,34.57
2019-04-30T14:15:19.266Z,35.19
2019-04-30T14:17:49.513Z,34.56
2019-04-30T14:20:19.907Z,35.05
2019-04-30T14:22:50.048Z,35.23
2019-04-30T14:25:20.160Z,34.90
2019-04-30T14:27:54.597Z,34.84
2019-04-30T14:30:22.122Z,35.02
2019-04-30T14:32:52.567Z,34.78
2019-04-30T14:35:22.878Z,35.17
2019-04-30T14:37:53.006Z,34.56
2019-04-30T14:40:23.995Z,33.88
2019-04-30T14:43:14.052Z,34.77
2019-04-30T14:46:01.130Z,34.81
2019-04-30T14:48:36.486Z,34.23
2019-04-30T14:51:07.475Z,34.31
2019-04-30T14:53:45.216Z,34.83
2019-04-30T14:56:39.320Z,34.79
2019-04-30T14:59:28.966Z,34.90
2019-04-30T15:02:15.963Z,35.28
2019-04-30T15:04:46.099Z,34.92
2019-04-30T15:07:16.225Z,34.96
2019-04-30T15:09:46.433Z,35.39
2019-04-30T15:12:16.493Z,35.24
2019-04-30T15:14:46.625Z,35.20
2019-04-30T15:17:17.982Z,35.97
2019-04-30T15:19:49.353Z,36.54
2019-04-30T15:22:19.926Z,36.47
2019-04-30T15:24:50.064Z,36.61
2019-04-30T15:27:20.153Z,36.43
2019-04-30T15:29:57.271Z,36.30
2019-04-30T15:32:22.110Z,36.23
2019-04-30T15:34:52.356Z,36.13
2019-04-30T15:37:23.989Z,36.19
2019-04-30T15:39:54.228Z,36.67
2019-04-30T15:42:24.351Z,37.05
2019-04-30T15:44:54.516Z,37.63
2019-04-30T15:47:24.643Z,37.84
2019-04-30T15:49:54.784Z,38.09
2019-04-30T15:52:25.103Z,38.19
2019-04-30T15:54:55.260Z,38.43
2019-04-30T15:57:25.397Z,38.75
2019-04-30T15:59:55.515Z,38.40
2019-04-30T16:02:31.120Z,38.19
2019-04-30T16:05:24.254Z,38.38
2019-04-30T16:08:12.168Z,38.45
2019-04-30T16:10:55.050Z,39.42
2019-04-30T16:13:30.309Z,39.49
2019-04-30T16:15:59.246Z,39.48
2019-04-30T16:18:36.461Z,39.44
2019-04-30T16:21:06.610Z,39.78
2019-04-30T16:23:38.541Z,39.63
2019-04-30T16:26:08.526Z,39.65
2019-04-30T16:28:39.077Z,39.73
2019-04-30T16:31:09.465Z,39.60
2019-04-30T16:33:39.757Z,39.69
2019-04-30T16:36:10.012Z,39.66
2019-04-30T16:38:41.194Z,39.34
2019-04-30T16:41:11.432Z,39.27
2019-04-30T16:43:44.058Z,38.73
2019-04-30T16:46:13.384Z,38.55
2019-04-30T16:48:43.595Z,37.80
2019-04-30T16:51:13.727Z,37.32
2019-04-30T16:53:44.193Z,37.26
2019-04-30T16:56:14.328Z,37.42
2019-04-30T16:59:00.182Z,37.57
2019-04-30T17:01:33.043Z,37.10
2019-04-30T17:04:09.625Z,36.96
2019-04-30T17:06:42.418Z,37.13
2019-04-30T17:09:21.743Z,36.87
2019-04-30T17:12:10.959Z,37.50
2019-04-30T17:14:41.817Z,37.48
2019-04-30T17:17:11.947Z,37.28
2019-04-30T17:19:42.056Z,37.44
2019-04-30T17:22:13.253Z,36.80
2019-04-30T17:24:43.361Z,36.86
2019-04-30T17:27:19.371Z,36.99
2019-04-30T17:29:45.283Z,36.96
2019-04-30T17:32:15.407Z,36.83
2019-04-30T17:34:45.520Z,37.04
2019-04-30T17:37:15.647Z,37.04
2019-04-30T17:39:45.751Z,36.41
2019-04-30T17:42:15.892Z,36.69
2019-04-30T17:44:56.378Z,36.38
2019-04-30T17:47:18.958Z,36.67
2019-04-30T17:49:50.915Z,37.71
2019-04-30T17:52:22.705Z,38.44
2019-04-30T17:54:52.823Z,37.30
2019-04-30T17:57:31.429Z,37.01
2019-04-30T17:59:54.840Z,37.05
2019-04-30T18:02:27.129Z,36.77
2019-04-30T18:04:57.236Z,36.72
2019-04-30T18:07:29.610Z,37.28
2019-04-30T18:09:59.757Z,38.13
2019-04-30T18:12:29.900Z,38.26
2019-04-30T18:15:00.401Z,37.08
2019-04-30T18:17:30.615Z,37.23
2019-04-30T18:20:09.012Z,37.26
2019-04-30T18:22:52.180Z,37.09
2019-04-30T18:25:35.291Z,37.06
2019-04-30T18:28:05.617Z,36.88
2019-04-30T18:30:39.050Z,36.99
2019-04-30T18:33:09.906Z,37.38
2019-04-30T18:35:40.464Z,37.18
2019-04-30T18:38:10.593Z,36.90
2019-04-30T18:40:40.795Z,36.84
2019-04-30T18:43:10.999Z,37.00
2019-04-30T18:45:41.389Z,36.76
2019-04-30T18:48:11.522Z,36.91
2019-04-30T18:50:41.645Z,36.74
2019-04-30T18:53:19.190Z,36.73
2019-04-30T18:55:50.755Z,36.93
2019-04-30T18:58:21.131Z,37.53
2019-04-30T19:00:51.341Z,37.94
2019-04-30T19:03:21.942Z,38.05
2019-04-30T19:05:58.703Z,37.21
2019-04-30T19:08:34.533Z,37.10
2019-04-30T19:11:23.588Z,37.34
2019-04-30T19:14:19.341Z,38.41
2019-04-30T19:17:16.967Z,38.22
2019-04-30T19:20:21.207Z,37.17
2019-04-30T19:22:51.322Z,37.22
2019-04-30T19:25:22.565Z,37.25
2019-04-30T19:27:52.697Z,37.75
2019-04-30T19:30:22.933Z,37.98
2019-04-30T19:32:53.124Z,38.46
2019-04-30T19:35:23.284Z,38.48
2019-04-30T19:37:53.408Z,37.55
2019-04-30T19:40:23.625Z,37.65
2019-04-30T19:42:53.761Z,37.93
2019-04-30T19:45:23.890Z,37.56
2019-04-30T19:47:53.994Z,37.71
2019-04-30T19:50:24.125Z,37.60
2019-04-30T19:52:54.229Z,38.32
2019-04-30T19:55:24.349Z,38.01
2019-04-30T19:57:54.452Z,37.86
2019-04-30T20:00:24.624Z,38.32
2019-04-30T20:02:57.252Z,37.38
2019-04-30T20:05:28.585Z,37.22
2019-04-30T20:07:59.227Z,36.44
2019-04-30T20:10:29.513Z,36.58
2019-04-30T20:12:59.634Z,36.75
2019-04-30T20:15:29.953Z,37.63
2019-04-30T20:18:01.063Z,37.80
2019-04-30T20:20:31.352Z,36.98
2019-04-30T20:23:01.455Z,37.69
2019-04-30T20:25:31.629Z,37.37
2019-04-30T20:28:01.764Z,38.24
2019-04-30T20:30:31.893Z,37.88
2019-04-30T20:33:02.005Z,38.07
2019-04-30T20:35:32.121Z,38.05
2019-04-30T20:38:33.389Z,38.43
2019-04-30T20:41:04.030Z,38.58
2019-04-30T20:43:34.139Z,38.93
2019-04-30T20:46:04.549Z,39.46
2019-04-30T20:48:34.650Z,39.92
2019-04-30T20:51:04.782Z,40.34
2019-04-30T20:53:34.892Z,40.50
2019-04-30T20:56:05.044Z,41.12
2019-04-30T20:58:35.165Z,40.93
2019-04-30T21:01:06.855Z,41.74
2019-04-30T21:03:39.391Z,41.84
2019-04-30T21:06:09.032Z,41.70
2019-04-30T21:08:39.118Z,41.20
2019-04-30T21:11:09.464Z,40.80
2019-04-30T21:13:39.551Z,41.23
2019-04-30T21:16:09.669Z,42.23
2019-04-30T21:18:39.829Z,42.38
2019-04-30T21:21:09.945Z,42.55
2019-04-30T21:23:40.067Z,43.06
2019-04-30T21:26:10.198Z,43.73
2019-04-30T21:28:40.319Z,43.38
2019-04-30T21:31:28.421Z,43.43
2019-04-30T21:34:05.488Z,43.75
2019-04-30T21:36:35.610Z,43.93
2019-04-30T21:39:08.993Z,44.01
2019-04-30T21:41:39.610Z,44.40
2019-04-30T21:44:09.961Z,44.15
2019-04-30T21:46:40.079Z,44.39
2019-04-30T21:49:10.189Z,44.38
2019-04-30T21:51:40.318Z,44.33
2019-04-30T21:54:10.448Z,44.95
2019-04-30T21:56:40.559Z,44.38
2019-04-30T21:59:23.546Z,44.29
2019-04-30T22:01:42.868Z,44.35
2019-04-30T22:04:12.991Z,44.39
2019-04-30T22:06:43.391Z,44.75
2019-04-30T22:09:13.781Z,44.54
2019-04-30T22:11:45.532Z,44.67
2019-04-30T22:14:15.836Z,44.90
2019-04-30T22:16:45.961Z,45.15
2019-04-30T22:19:16.078Z,45.26
2019-04-30T22:21:46.216Z,45.17
2019-04-30T22:24:16.319Z,45.18
2019-04-30T22:26:46.437Z,45.29
2019-04-30T22:29:16.552Z,45.50
2019-04-30T22:31:46.655Z,45.89
2019-04-30T22:34:16.753Z,46.67
2019-04-30T22:36:50.003Z,47.37
2019-04-30T22:39:39.508Z,47.16
2019-04-30T22:42:39.747Z,46.55
2019-04-30T22:45:23.992Z,46.44
2019-04-30T22:47:54.098Z,46.72
2019-04-30T22:50:24.223Z,47.13
2019-04-30T22:52:54.369Z,46.65
2019-04-30T22:55:24.490Z,46.65
2019-04-30T22:57:54.620Z,46.69
2019-04-30T23:00:45.063Z,46.94
2019-04-30T23:03:28.458Z,47.00
2019-04-30T23:05:58.664Z,47.89
2019-04-30T23:08:28.770Z,47.92
2019-04-30T23:10:58.887Z,47.45
2019-04-30T23:13:29.122Z,47.44
2019-04-30T23:15:59.241Z,47.54
2019-04-30T23:18:32.100Z,47.58
2019-04-30T23:21:01.191Z,47.90
2019-04-30T23:23:31.307Z,47.94
2019-04-30T23:26:01.438Z,47.94
2019-04-30T23:28:31.558Z,47.88
2019-04-30T23:31:01.719Z,48.69
2019-04-30T23:33:32.096Z,48.77
2019-04-30T23:36:02.218Z,48.43
2019-04-30T23:38:32.358Z,48.51
2019-04-30T23:41:02.455Z,48.41
2019-04-30T23:43:32.595Z,48.71
2019-04-30T23:46:02.743Z,48.71
2019-04-30T23:48:32.912Z,48.68
2019-04-30T23:51:03.034Z,48.80
2019-04-30T23:53:33.189Z,48.78
2019-04-30T23:56:03.295Z,49.09
2019-04-30T23:58:33.430Z,48.92
